sensor_id;sensor_type;location;lat;lon;timestamp;temperature;humidity
6118;DHT22;3089;48.202;11.510;2023-11-21T00:00:38;7.50;99.90
6118;DHT22;3089;48.202;11.510;2023-11-21T00:03:06;7.50;99.90
6118;DHT22;3089;48.202;11.510;2023-11-21T00:05:34;7.40;99.90
6118;DHT22;3089;48.202;11.510;2023-11-21T00:08:03;7.50;99.90
6118;DHT22;3089;48.202;11.510;2023-11-21T00:10:31;7.40;99.90
6118;DHT22;3089;48.202;11.510;2023-11-21T00:12:59;7.40;99.90
6118;DHT22;3089;48.202;11.510;2023-11-21T00:15:29;7.50;99.90
6118;DHT22;3089;48.202;11.510;2023-11-21T00:17:59;7.60;99.90
6118;DHT22;3089;48.202;11.510;2023-11-21T00:20:27;7.50;99.90
6118;DHT22;3089;48.202;11.510;2023-11-21T00:22:55;7.50;99.90
6118;DHT22;3089;48.202;11.510;2023-11-21T00:25:23;7.50;99.90
6118;DHT22;3089;48.202;11.510;2023-11-21T00:27:51;7.50;99.90
6118;DHT22;3089;48.202;11.510;2023-11-21T00:30:20;7.50;99.90
6118;DHT22;3089;48.202;11.510;2023-11-21T00:32:49;7.50;99.90
6118;DHT22;3089;48.202;11.510;2023-11-21T00:35:18;7.30;99.90
6118;DHT22;3089;48.202;11.510;2023-11-21T00:37:46;7.30;99.90
6118;DHT22;3089;48.202;11.510;2023-11-21T00:40:16;7.40;99.90
6118;DHT22;3089;48.202;11.510;2023-11-21T00:42:46;7.20;99.90
6118;DHT22;3089;48.202;11.510;2023-11-21T00:45:14;7.20;99.90
6118;DHT22;3089;48.202;11.510;2023-11-21T00:47:42;7.30;99.90
6118;DHT22;3089;48.202;11.510;2023-11-21T00:50:10;7.40;99.90
6118;DHT22;3089;48.202;11.510;2023-11-21T00:52:39;7.30;99.90
6118;DHT22;3089;48.202;11.510;2023-11-21T00:55:08;7.20;99.90
6118;DHT22;3089;48.202;11.510;2023-11-21T00:57:37;7.20;99.90
6118;DHT22;3089;48.202;11.510;2023-11-21T01:00:06;7.10;99.90
6118;DHT22;3089;48.202;11.510;2023-11-21T01:02:39;7.20;99.90
6118;DHT22;3089;48.202;11.510;2023-11-21T01:05:08;7.30;99.90
6118;DHT22;3089;48.202;11.510;2023-11-21T01:07:35;7.30;99.90
6118;DHT22;3089;48.202;11.510;2023-11-21T01:10:06;7.30;99.90
6118;DHT22;3089;48.202;11.510;2023-11-21T01:12:34;7.30;99.90
6118;DHT22;3089;48.202;11.510;2023-11-21T01:15:03;7.30;99.90
6118;DHT22;3089;48.202;11.510;2023-11-21T01:17:33;7.30;99.90
6118;DHT22;3089;48.202;11.510;2023-11-21T01:20:03;7.30;99.90
6118;DHT22;3089;48.202;11.510;2023-11-21T01:22:33;7.20;99.90
6118;DHT22;3089;48.202;11.510;2023-11-21T01:25:01;7.20;99.90
6118;DHT22;3089;48.202;11.510;2023-11-21T01:27:33;7.20;99.90
6118;DHT22;3089;48.202;11.510;2023-11-21T01:30:01;7.20;99.90
6118;DHT22;3089;48.202;11.510;2023-11-21T01:32:29;7.10;99.90
6118;DHT22;3089;48.202;11.510;2023-11-21T01:34:57;7.20;99.90
6118;DHT22;3089;48.202;11.510;2023-11-21T01:37:25;7.20;99.90
6118;DHT22;3089;48.202;11.510;2023-11-21T01:39:54;7.20;99.90
6118;DHT22;3089;48.202;11.510;2023-11-21T01:42:22;7.10;99.90
6118;DHT22;3089;48.202;11.510;2023-11-21T01:44:52;7.20;99.90
6118;DHT22;3089;48.202;11.510;2023-11-21T01:47:21;7.20;99.90
6118;DHT22;3089;48.202;11.510;2023-11-21T01:49:49;7.20;99.90
6118;DHT22;3089;48.202;11.510;2023-11-21T01:52:17;7.20;99.90
6118;DHT22;3089;48.202;11.510;2023-11-21T01:54:46;7.20;99.90
6118;DHT22;3089;48.202;11.510;2023-11-21T01:57:14;7.20;99.90
6118;DHT22;3089;48.202;11.510;2023-11-21T01:59:44;7.20;99.90
6118;DHT22;3089;48.202;11.510;2023-11-21T02:02:14;7.20;99.90
6118;DHT22;3089;48.202;11.510;2023-11-21T02:04:43;7.20;99.90
6118;DHT22;3089;48.202;11.510;2023-11-21T02:07:11;7.20;99.90
6118;DHT22;3089;48.202;11.510;2023-11-21T02:09:39;7.20;99.90
6118;DHT22;3089;48.202;11.510;2023-11-21T02:12:09;7.20;99.90
6118;DHT22;3089;48.202;11.510;2023-11-21T02:14:37;7.20;99.90
6118;DHT22;3089;48.202;11.510;2023-11-21T02:17:05;7.30;99.90
6118;DHT22;3089;48.202;11.510;2023-11-21T02:19:34;7.20;99.90
6118;DHT22;3089;48.202;11.510;2023-11-21T02:22:02;7.20;99.90
6118;DHT22;3089;48.202;11.510;2023-11-21T02:24:34;7.40;99.90
6118;DHT22;3089;48.202;11.510;2023-11-21T02:27:03;7.30;99.90
6118;DHT22;3089;48.202;11.510;2023-11-21T02:29:32;7.10;99.90
6118;DHT22;3089;48.202;11.510;2023-11-21T02:32:00;7.10;99.90
6118;DHT22;3089;48.202;11.510;2023-11-21T02:34:28;7.00;99.90
6118;DHT22;3089;48.202;11.510;2023-11-21T02:36:56;7.20;99.90
6118;DHT22;3089;48.202;11.510;2023-11-21T02:39:24;7.20;99.90
6118;DHT22;3089;48.202;11.510;2023-11-21T02:41:53;7.20;99.90
6118;DHT22;3089;48.202;11.510;2023-11-21T02:44:21;7.20;99.90
6118;DHT22;3089;48.202;11.510;2023-11-21T02:46:49;7.20;99.90
6118;DHT22;3089;48.202;11.510;2023-11-21T02:49:17;7.20;99.90
6118;DHT22;3089;48.202;11.510;2023-11-21T02:51:45;7.20;99.90
6118;DHT22;3089;48.202;11.510;2023-11-21T02:54:13;7.30;99.90
6118;DHT22;3089;48.202;11.510;2023-11-21T02:56:43;7.20;99.90
6118;DHT22;3089;48.202;11.510;2023-11-21T02:59:12;7.20;99.90
6118;DHT22;3089;48.202;11.510;2023-11-21T03:01:40;7.20;99.90
6118;DHT22;3089;48.202;11.510;2023-11-21T03:04:08;7.10;99.90
6118;DHT22;3089;48.202;11.510;2023-11-21T03:06:36;7.20;99.90
6118;DHT22;3089;48.202;11.510;2023-11-21T03:09:04;7.20;99.90
6118;DHT22;3089;48.202;11.510;2023-11-21T03:11:33;7.20;99.90
6118;DHT22;3089;48.202;11.510;2023-11-21T03:14:01;7.20;99.90
6118;DHT22;3089;48.202;11.510;2023-11-21T03:16:30;7.20;99.90
6118;DHT22;3089;48.202;11.510;2023-11-21T03:18:58;7.20;99.90
6118;DHT22;3089;48.202;11.510;2023-11-21T03:21:26;7.20;99.90
6118;DHT22;3089;48.202;11.510;2023-11-21T03:23:54;7.10;99.90
6118;DHT22;3089;48.202;11.510;2023-11-21T03:26:22;7.10;99.90
6118;DHT22;3089;48.202;11.510;2023-11-21T03:28:50;7.10;99.90
6118;DHT22;3089;48.202;11.510;2023-11-21T03:31:20;7.10;99.90
6118;DHT22;3089;48.202;11.510;2023-11-21T03:33:49;7.20;99.90
6118;DHT22;3089;48.202;11.510;2023-11-21T03:36:17;7.20;99.90
6118;DHT22;3089;48.202;11.510;2023-11-21T03:38:45;7.20;99.90
6118;DHT22;3089;48.202;11.510;2023-11-21T03:41:13;7.20;99.90
6118;DHT22;3089;48.202;11.510;2023-11-21T03:43:41;7.20;99.90
6118;DHT22;3089;48.202;11.510;2023-11-21T03:46:09;7.10;99.90
6118;DHT22;3089;48.202;11.510;2023-11-21T03:48:37;7.10;99.90
6118;DHT22;3089;48.202;11.510;2023-11-21T03:51:06;7.10;99.90
6118;DHT22;3089;48.202;11.510;2023-11-21T03:53:34;7.10;99.90
6118;DHT22;3089;48.202;11.510;2023-11-21T03:56:03;7.10;99.90
6118;DHT22;3089;48.202;11.510;2023-11-21T03:58:32;7.20;99.90
6118;DHT22;3089;48.202;11.510;2023-11-21T04:01:00;7.10;99.90
6118;DHT22;3089;48.202;11.510;2023-11-21T04:03:28;7.10;99.90
6118;DHT22;3089;48.202;11.510;2023-11-21T04:05:57;7.10;99.90
6118;DHT22;3089;48.202;11.510;2023-11-21T04:08:26;7.10;99.90
6118;DHT22;3089;48.202;11.510;2023-11-21T04:10:54;7.00;99.90
6118;DHT22;3089;48.202;11.510;2023-11-21T04:13:22;7.00;99.90
6118;DHT22;3089;48.202;11.510;2023-11-21T04:15:50;6.90;99.90
6118;DHT22;3089;48.202;11.510;2023-11-21T04:18:18;6.90;99.90
6118;DHT22;3089;48.202;11.510;2023-11-21T04:20:46;6.90;99.90
6118;DHT22;3089;48.202;11.510;2023-11-21T04:23:14;6.90;99.90
6118;DHT22;3089;48.202;11.510;2023-11-21T04:25:43;7.00;99.90
6118;DHT22;3089;48.202;11.510;2023-11-21T04:28:11;7.00;99.90
6118;DHT22;3089;48.202;11.510;2023-11-21T04:30:39;7.10;99.90
6118;DHT22;3089;48.202;11.510;2023-11-21T04:33:07;7.10;99.90
6118;DHT22;3089;48.202;11.510;2023-11-21T04:35:35;7.00;99.90
6118;DHT22;3089;48.202;11.510;2023-11-21T04:38:03;7.10;99.90
6118;DHT22;3089;48.202;11.510;2023-11-21T04:40:31;7.10;99.90
6118;DHT22;3089;48.202;11.510;2023-11-21T04:43:00;7.10;99.90
6118;DHT22;3089;48.202;11.510;2023-11-21T04:45:28;7.20;99.90
6118;DHT22;3089;48.202;11.510;2023-11-21T04:47:56;7.00;99.90
6118;DHT22;3089;48.202;11.510;2023-11-21T04:50:24;7.10;99.90
6118;DHT22;3089;48.202;11.510;2023-11-21T04:52:53;7.20;99.90
6118;DHT22;3089;48.202;11.510;2023-11-21T04:55:21;7.10;99.90
6118;DHT22;3089;48.202;11.510;2023-11-21T04:57:49;7.20;99.90
6118;DHT22;3089;48.202;11.510;2023-11-21T05:00:18;7.10;99.90
6118;DHT22;3089;48.202;11.510;2023-11-21T05:02:47;7.10;99.90
6118;DHT22;3089;48.202;11.510;2023-11-21T05:05:16;7.10;99.90
6118;DHT22;3089;48.202;11.510;2023-11-21T05:07:44;7.10;99.90
6118;DHT22;3089;48.202;11.510;2023-11-21T05:10:12;7.00;99.90
6118;DHT22;3089;48.202;11.510;2023-11-21T05:12:42;7.00;99.90
6118;DHT22;3089;48.202;11.510;2023-11-21T05:15:14;7.00;99.90
6118;DHT22;3089;48.202;11.510;2023-11-21T05:17:43;7.10;99.90
6118;DHT22;3089;48.202;11.510;2023-11-21T05:20:13;7.10;99.90
6118;DHT22;3089;48.202;11.510;2023-11-21T05:22:45;7.00;99.90
6118;DHT22;3089;48.202;11.510;2023-11-21T05:25:13;6.90;99.90
6118;DHT22;3089;48.202;11.510;2023-11-21T05:27:41;6.90;99.90
6118;DHT22;3089;48.202;11.510;2023-11-21T05:30:09;7.00;99.90
6118;DHT22;3089;48.202;11.510;2023-11-21T05:32:39;7.10;99.90
6118;DHT22;3089;48.202;11.510;2023-11-21T05:35:10;7.10;99.90
6118;DHT22;3089;48.202;11.510;2023-11-21T05:37:43;7.10;99.90
6118;DHT22;3089;48.202;11.510;2023-11-21T05:40:11;7.10;99.90
6118;DHT22;3089;48.202;11.510;2023-11-21T05:42:40;6.90;99.90
6118;DHT22;3089;48.202;11.510;2023-11-21T05:45:08;7.00;99.90
6118;DHT22;3089;48.202;11.510;2023-11-21T05:47:38;6.90;99.90
6118;DHT22;3089;48.202;11.510;2023-11-21T05:50:09;7.00;99.90
6118;DHT22;3089;48.202;11.510;2023-11-21T05:52:39;7.00;99.90
6118;DHT22;3089;48.202;11.510;2023-11-21T05:55:07;6.90;99.90
6118;DHT22;3089;48.202;11.510;2023-11-21T05:57:36;7.00;99.90
6118;DHT22;3089;48.202;11.510;2023-11-21T06:00:06;6.90;99.90
6118;DHT22;3089;48.202;11.510;2023-11-21T06:02:38;7.00;99.90
6118;DHT22;3089;48.202;11.510;2023-11-21T06:05:07;7.00;99.90
6118;DHT22;3089;48.202;11.510;2023-11-21T06:07:37;7.00;99.90
6118;DHT22;3089;48.202;11.510;2023-11-21T06:10:08;7.00;99.90
6118;DHT22;3089;48.202;11.510;2023-11-21T06:12:37;7.00;99.90
6118;DHT22;3089;48.202;11.510;2023-11-21T06:15:07;7.00;99.90
6118;DHT22;3089;48.202;11.510;2023-11-21T06:17:35;6.90;99.90
6118;DHT22;3089;48.202;11.510;2023-11-21T06:20:04;7.00;99.90
6118;DHT22;3089;48.202;11.510;2023-11-21T06:22:38;7.00;99.90
6118;DHT22;3089;48.202;11.510;2023-11-21T06:25:08;7.00;99.90
6118;DHT22;3089;48.202;11.510;2023-11-21T06:27:38;7.00;99.90
6118;DHT22;3089;48.202;11.510;2023-11-21T06:30:07;6.90;99.90
6118;DHT22;3089;48.202;11.510;2023-11-21T06:32:36;6.90;99.90
6118;DHT22;3089;48.202;11.510;2023-11-21T06:35:05;7.00;99.90
6118;DHT22;3089;48.202;11.510;2023-11-21T06:37:34;7.00;99.90
6118;DHT22;3089;48.202;11.510;2023-11-21T06:40:04;6.90;99.90
6118;DHT22;3089;48.202;11.510;2023-11-21T06:42:33;7.00;99.90
6118;DHT22;3089;48.202;11.510;2023-11-21T06:45:01;6.90;99.90
6118;DHT22;3089;48.202;11.510;2023-11-21T06:47:30;6.90;99.90
6118;DHT22;3089;48.202;11.510;2023-11-21T06:49:59;6.90;99.90
6118;DHT22;3089;48.202;11.510;2023-11-21T06:52:27;6.80;99.90
6118;DHT22;3089;48.202;11.510;2023-11-21T06:54:55;6.80;99.90
6118;DHT22;3089;48.202;11.510;2023-11-21T06:57:24;6.80;99.90
6118;DHT22;3089;48.202;11.510;2023-11-21T06:59:52;6.80;99.90
6118;DHT22;3089;48.202;11.510;2023-11-21T07:02:20;6.80;99.90
6118;DHT22;3089;48.202;11.510;2023-11-21T07:04:48;6.90;99.90
6118;DHT22;3089;48.202;11.510;2023-11-21T07:07:17;6.80;99.90
6118;DHT22;3089;48.202;11.510;2023-11-21T07:09:45;6.80;99.90
6118;DHT22;3089;48.202;11.510;2023-11-21T07:12:14;6.80;99.90
6118;DHT22;3089;48.202;11.510;2023-11-21T07:14:43;6.80;99.90
6118;DHT22;3089;48.202;11.510;2023-11-21T07:17:12;6.80;99.90
6118;DHT22;3089;48.202;11.510;2023-11-21T07:19:39;6.90;99.90
6118;DHT22;3089;48.202;11.510;2023-11-21T07:22:08;6.80;99.90
6118;DHT22;3089;48.202;11.510;2023-11-21T07:24:37;6.80;99.90
6118;DHT22;3089;48.202;11.510;2023-11-21T07:27:04;6.80;99.90
6118;DHT22;3089;48.202;11.510;2023-11-21T07:29:32;6.80;99.90
6118;DHT22;3089;48.202;11.510;2023-11-21T07:32:02;6.80;99.90
6118;DHT22;3089;48.202;11.510;2023-11-21T07:34:30;6.90;99.90
6118;DHT22;3089;48.202;11.510;2023-11-21T07:36:58;6.90;99.90
6118;DHT22;3089;48.202;11.510;2023-11-21T07:39:26;6.90;99.90
6118;DHT22;3089;48.202;11.510;2023-11-21T07:41:54;7.00;99.90
6118;DHT22;3089;48.202;11.510;2023-11-21T07:44:22;7.00;99.90
6118;DHT22;3089;48.202;11.510;2023-11-21T07:46:50;7.10;99.90
6118;DHT22;3089;48.202;11.510;2023-11-21T07:49:19;7.10;99.90
6118;DHT22;3089;48.202;11.510;2023-11-21T07:51:49;7.20;99.90
6118;DHT22;3089;48.202;11.510;2023-11-21T07:54:17;7.20;99.90
6118;DHT22;3089;48.202;11.510;2023-11-21T07:56:45;7.20;99.90
6118;DHT22;3089;48.202;11.510;2023-11-21T07:59:13;7.10;99.90
6118;DHT22;3089;48.202;11.510;2023-11-21T08:01:41;7.10;99.90
6118;DHT22;3089;48.202;11.510;2023-11-21T08:04:10;7.20;99.90
6118;DHT22;3089;48.202;11.510;2023-11-21T08:06:39;7.20;99.90
6118;DHT22;3089;48.202;11.510;2023-11-21T08:09:08;7.30;99.90
6118;DHT22;3089;48.202;11.510;2023-11-21T08:11:38;7.30;99.90
6118;DHT22;3089;48.202;11.510;2023-11-21T08:14:06;7.40;99.90
6118;DHT22;3089;48.202;11.510;2023-11-21T08:16:34;7.50;99.90
6118;DHT22;3089;48.202;11.510;2023-11-21T08:19:02;7.80;99.90
6118;DHT22;3089;48.202;11.510;2023-11-21T08:21:30;7.70;99.90
6118;DHT22;3089;48.202;11.510;2023-11-21T08:23:59;7.60;99.90
6118;DHT22;3089;48.202;11.510;2023-11-21T08:26:28;7.50;99.90
6118;DHT22;3089;48.202;11.510;2023-11-21T08:28:56;7.50;99.90
6118;DHT22;3089;48.202;11.510;2023-11-21T08:31:25;7.50;99.90
6118;DHT22;3089;48.202;11.510;2023-11-21T08:33:53;7.50;99.90
6118;DHT22;3089;48.202;11.510;2023-11-21T08:36:22;7.50;99.90
6118;DHT22;3089;48.202;11.510;2023-11-21T08:38:51;7.50;99.90
6118;DHT22;3089;48.202;11.510;2023-11-21T08:41:20;7.40;99.90
6118;DHT22;3089;48.202;11.510;2023-11-21T08:43:50;7.40;99.90
6118;DHT22;3089;48.202;11.510;2023-11-21T08:46:19;7.40;99.90
6118;DHT22;3089;48.202;11.510;2023-11-21T08:48:47;7.40;99.90
6118;DHT22;3089;48.202;11.510;2023-11-21T08:51:16;7.40;99.90
6118;DHT22;3089;48.202;11.510;2023-11-21T08:53:44;7.40;99.90
6118;DHT22;3089;48.202;11.510;2023-11-21T08:56:12;7.40;99.90
6118;DHT22;3089;48.202;11.510;2023-11-21T08:58:42;7.40;99.90
6118;DHT22;3089;48.202;11.510;2023-11-21T09:01:10;7.50;99.90
6118;DHT22;3089;48.202;11.510;2023-11-21T09:03:39;7.50;99.90
6118;DHT22;3089;48.202;11.510;2023-11-21T09:06:07;7.50;99.90
6118;DHT22;3089;48.202;11.510;2023-11-21T09:08:36;7.50;99.90
6118;DHT22;3089;48.202;11.510;2023-11-21T09:11:05;7.50;99.90
6118;DHT22;3089;48.202;11.510;2023-11-21T09:13:34;7.70;99.90
6118;DHT22;3089;48.202;11.510;2023-11-21T09:16:05;7.80;99.90
6118;DHT22;3089;48.202;11.510;2023-11-21T09:18:33;8.00;99.90
6118;DHT22;3089;48.202;11.510;2023-11-21T09:21:01;8.20;99.90
6118;DHT22;3089;48.202;11.510;2023-11-21T09:23:28;8.70;99.90
6118;DHT22;3089;48.202;11.510;2023-11-21T09:25:57;9.50;99.90
6118;DHT22;3089;48.202;11.510;2023-11-21T09:28:26;9.10;99.90
6118;DHT22;3089;48.202;11.510;2023-11-21T09:30:54;8.60;99.90
6118;DHT22;3089;48.202;11.510;2023-11-21T09:33:24;8.90;99.90
6118;DHT22;3089;48.202;11.510;2023-11-21T09:35:52;9.10;99.90
6118;DHT22;3089;48.202;11.510;2023-11-21T09:38:20;9.50;99.90
6118;DHT22;3089;48.202;11.510;2023-11-21T09:40:48;9.60;99.90
6118;DHT22;3089;48.202;11.510;2023-11-21T09:43:17;9.20;99.90
6118;DHT22;3089;48.202;11.510;2023-11-21T09:45:46;9.30;99.90
6118;DHT22;3089;48.202;11.510;2023-11-21T09:48:15;9.30;99.90
6118;DHT22;3089;48.202;11.510;2023-11-21T09:50:46;9.30;99.90
6118;DHT22;3089;48.202;11.510;2023-11-21T09:53:18;9.30;99.90
6118;DHT22;3089;48.202;11.510;2023-11-21T09:55:50;9.50;99.90
6118;DHT22;3089;48.202;11.510;2023-11-21T09:58:19;9.50;99.90
6118;DHT22;3089;48.202;11.510;2023-11-21T10:00:50;9.60;99.90
6118;DHT22;3089;48.202;11.510;2023-11-21T10:03:20;9.20;99.90
6118;DHT22;3089;48.202;11.510;2023-11-21T10:05:51;9.10;99.90
6118;DHT22;3089;48.202;11.510;2023-11-21T10:08:22;9.00;99.90
6118;DHT22;3089;48.202;11.510;2023-11-21T10:11:01;9.00;99.90
6118;DHT22;3089;48.202;11.510;2023-11-21T10:13:33;9.10;99.90
6118;DHT22;3089;48.202;11.510;2023-11-21T10:16:02;9.20;99.90
6118;DHT22;3089;48.202;11.510;2023-11-21T10:18:32;9.20;99.90
6118;DHT22;3089;48.202;11.510;2023-11-21T10:21:03;9.20;99.90
6118;DHT22;3089;48.202;11.510;2023-11-21T10:23:31;9.20;99.90
6118;DHT22;3089;48.202;11.510;2023-11-21T10:25:59;9.40;99.90
6118;DHT22;3089;48.202;11.510;2023-11-21T10:28:37;9.60;99.90
6118;DHT22;3089;48.202;11.510;2023-11-21T10:31:06;10.20;99.90
6118;DHT22;3089;48.202;11.510;2023-11-21T10:33:36;10.00;99.90
6118;DHT22;3089;48.202;11.510;2023-11-21T10:36:06;10.10;99.90
6118;DHT22;3089;48.202;11.510;2023-11-21T10:38:42;9.40;99.90
6118;DHT22;3089;48.202;11.510;2023-11-21T10:41:15;9.30;99.90
6118;DHT22;3089;48.202;11.510;2023-11-21T10:43:45;9.30;99.90
6118;DHT22;3089;48.202;11.510;2023-11-21T10:46:14;9.50;99.90
6118;DHT22;3089;48.202;11.510;2023-11-21T10:48:42;9.50;99.90
6118;DHT22;3089;48.202;11.510;2023-11-21T10:51:11;9.40;99.90
6118;DHT22;3089;48.202;11.510;2023-11-21T10:53:40;9.20;99.90
6118;DHT22;3089;48.202;11.510;2023-11-21T10:56:14;9.20;99.90
6118;DHT22;3089;48.202;11.510;2023-11-21T10:58:44;9.10;99.90
6118;DHT22;3089;48.202;11.510;2023-11-21T11:01:13;9.20;99.90
6118;DHT22;3089;48.202;11.510;2023-11-21T11:03:44;9.20;99.90
6118;DHT22;3089;48.202;11.510;2023-11-21T11:06:14;9.40;99.90
6118;DHT22;3089;48.202;11.510;2023-11-21T11:08:42;9.40;99.90
6118;DHT22;3089;48.202;11.510;2023-11-21T11:11:10;9.40;99.90
6118;DHT22;3089;48.202;11.510;2023-11-21T11:13:39;9.20;99.90
6118;DHT22;3089;48.202;11.510;2023-11-21T11:16:11;9.20;99.90
6118;DHT22;3089;48.202;11.510;2023-11-21T11:18:43;9.20;99.90
6118;DHT22;3089;48.202;11.510;2023-11-21T11:21:28;9.20;99.90
6118;DHT22;3089;48.202;11.510;2023-11-21T11:24:11;9.20;99.90
6118;DHT22;3089;48.202;11.510;2023-11-21T11:26:46;9.00;99.90
6118;DHT22;3089;48.202;11.510;2023-11-21T11:29:23;9.00;99.90
6118;DHT22;3089;48.202;11.510;2023-11-21T11:32:00;9.00;99.90
6118;DHT22;3089;48.202;11.510;2023-11-21T11:34:34;9.00;99.90
6118;DHT22;3089;48.202;11.510;2023-11-21T11:37:06;9.00;99.90
6118;DHT22;3089;48.202;11.510;2023-11-21T11:39:37;9.00;99.90
6118;DHT22;3089;48.202;11.510;2023-11-21T11:42:07;9.00;99.90
6118;DHT22;3089;48.202;11.510;2023-11-21T11:44:50;9.00;99.90
6118;DHT22;3089;48.202;11.510;2023-11-21T11:47:22;9.00;99.90
6118;DHT22;3089;48.202;11.510;2023-11-21T11:49:58;9.10;99.90
6118;DHT22;3089;48.202;11.510;2023-11-21T11:52:36;9.00;99.90
6118;DHT22;3089;48.202;11.510;2023-11-21T11:55:07;9.20;99.90
6118;DHT22;3089;48.202;11.510;2023-11-21T11:57:37;9.00;99.90
6118;DHT22;3089;48.202;11.510;2023-11-21T12:00:14;9.20;99.90
6118;DHT22;3089;48.202;11.510;2023-11-21T12:02:51;9.30;99.90
6118;DHT22;3089;48.202;11.510;2023-11-21T12:05:20;9.30;99.90
6118;DHT22;3089;48.202;11.510;2023-11-21T12:07:52;9.30;99.90
6118;DHT22;3089;48.202;11.510;2023-11-21T12:10:21;9.30;99.90
6118;DHT22;3089;48.202;11.510;2023-11-21T12:12:55;9.20;99.90
6118;DHT22;3089;48.202;11.510;2023-11-21T12:15:23;9.10;99.90
6118;DHT22;3089;48.202;11.510;2023-11-21T12:17:52;8.90;99.90
6118;DHT22;3089;48.202;11.510;2023-11-21T12:20:21;8.90;99.90
6118;DHT22;3089;48.202;11.510;2023-11-21T12:22:51;8.90;99.90
6118;DHT22;3089;48.202;11.510;2023-11-21T12:25:21;8.80;99.90
6118;DHT22;3089;48.202;11.510;2023-11-21T12:27:50;8.80;99.90
6118;DHT22;3089;48.202;11.510;2023-11-21T12:30:19;8.80;99.90
6118;DHT22;3089;48.202;11.510;2023-11-21T12:32:49;8.80;99.90
6118;DHT22;3089;48.202;11.510;2023-11-21T12:35:19;8.80;99.90
6118;DHT22;3089;48.202;11.510;2023-11-21T12:37:48;8.90;99.90
6118;DHT22;3089;48.202;11.510;2023-11-21T12:40:18;8.90;99.90
6118;DHT22;3089;48.202;11.510;2023-11-21T12:42:47;8.90;99.90
6118;DHT22;3089;48.202;11.510;2023-11-21T12:45:20;8.90;99.90
6118;DHT22;3089;48.202;11.510;2023-11-21T12:47:49;9.00;99.90
6118;DHT22;3089;48.202;11.510;2023-11-21T12:50:19;9.00;99.90
6118;DHT22;3089;48.202;11.510;2023-11-21T12:52:51;9.00;99.90
6118;DHT22;3089;48.202;11.510;2023-11-21T12:55:22;9.00;99.90
6118;DHT22;3089;48.202;11.510;2023-11-21T12:57:51;8.80;99.90
6118;DHT22;3089;48.202;11.510;2023-11-21T13:00:28;8.90;99.90
6118;DHT22;3089;48.202;11.510;2023-11-21T13:02:57;8.80;99.90
6118;DHT22;3089;48.202;11.510;2023-11-21T13:05:27;8.80;99.90
6118;DHT22;3089;48.202;11.510;2023-11-21T13:07:57;8.80;99.90
6118;DHT22;3089;48.202;11.510;2023-11-21T13:10:28;8.80;99.90
6118;DHT22;3089;48.202;11.510;2023-11-21T13:12:58;8.80;99.90
6118;DHT22;3089;48.202;11.510;2023-11-21T13:15:27;8.80;99.90
6118;DHT22;3089;48.202;11.510;2023-11-21T13:17:55;8.80;99.90
6118;DHT22;3089;48.202;11.510;2023-11-21T13:20:24;8.80;99.90
6118;DHT22;3089;48.202;11.510;2023-11-21T13:22:54;8.90;99.90
6118;DHT22;3089;48.202;11.510;2023-11-21T13:25:24;8.90;99.90
6118;DHT22;3089;48.202;11.510;2023-11-21T13:27:55;8.90;99.90
6118;DHT22;3089;48.202;11.510;2023-11-21T13:30:23;8.90;99.90
6118;DHT22;3089;48.202;11.510;2023-11-21T13:32:53;8.90;99.90
6118;DHT22;3089;48.202;11.510;2023-11-21T13:35:24;8.80;99.90
6118;DHT22;3089;48.202;11.510;2023-11-21T13:38:02;8.70;99.90
6118;DHT22;3089;48.202;11.510;2023-11-21T13:40:30;8.70;99.90
6118;DHT22;3089;48.202;11.510;2023-11-21T13:43:02;8.70;99.90
6118;DHT22;3089;48.202;11.510;2023-11-21T13:45:31;8.70;99.90
6118;DHT22;3089;48.202;11.510;2023-11-21T13:47:59;8.70;99.90
6118;DHT22;3089;48.202;11.510;2023-11-21T13:50:27;8.60;99.90
6118;DHT22;3089;48.202;11.510;2023-11-21T13:52:59;8.60;99.90
6118;DHT22;3089;48.202;11.510;2023-11-21T13:55:30;8.40;99.90
6118;DHT22;3089;48.202;11.510;2023-11-21T13:57:58;8.40;99.90
6118;DHT22;3089;48.202;11.510;2023-11-21T14:00:28;8.40;99.90
6118;DHT22;3089;48.202;11.510;2023-11-21T14:03:11;8.30;99.90
6118;DHT22;3089;48.202;11.510;2023-11-21T14:05:48;8.30;99.90
6118;DHT22;3089;48.202;11.510;2023-11-21T14:08:19;8.50;99.90
6118;DHT22;3089;48.202;11.510;2023-11-21T14:10:47;8.50;99.90
6118;DHT22;3089;48.202;11.510;2023-11-21T14:13:22;8.50;99.90
6118;DHT22;3089;48.202;11.510;2023-11-21T14:15:52;8.50;99.90
6118;DHT22;3089;48.202;11.510;2023-11-21T14:18:24;8.50;99.90
6118;DHT22;3089;48.202;11.510;2023-11-21T14:20:57;8.50;99.90
6118;DHT22;3089;48.202;11.510;2023-11-21T14:23:25;8.50;99.90
6118;DHT22;3089;48.202;11.510;2023-11-21T14:25:53;8.50;99.90
6118;DHT22;3089;48.202;11.510;2023-11-21T14:28:20;8.40;99.90
6118;DHT22;3089;48.202;11.510;2023-11-21T14:30:50;8.40;99.90
6118;DHT22;3089;48.202;11.510;2023-11-21T14:33:18;8.40;99.90
6118;DHT22;3089;48.202;11.510;2023-11-21T14:35:46;8.40;99.90
6118;DHT22;3089;48.202;11.510;2023-11-21T14:38:14;8.30;99.90
6118;DHT22;3089;48.202;11.510;2023-11-21T14:40:42;8.30;99.90
6118;DHT22;3089;48.202;11.510;2023-11-21T14:43:11;8.30;99.90
6118;DHT22;3089;48.202;11.510;2023-11-21T14:45:39;8.30;99.90
6118;DHT22;3089;48.202;11.510;2023-11-21T14:48:08;8.30;99.90
6118;DHT22;3089;48.202;11.510;2023-11-21T14:50:42;8.30;99.90
6118;DHT22;3089;48.202;11.510;2023-11-21T14:53:17;8.30;99.90
6118;DHT22;3089;48.202;11.510;2023-11-21T14:56:05;8.30;99.90
6118;DHT22;3089;48.202;11.510;2023-11-21T14:58:34;8.30;99.90
6118;DHT22;3089;48.202;11.510;2023-11-21T15:01:03;8.30;99.90
6118;DHT22;3089;48.202;11.510;2023-11-21T15:03:34;8.30;99.90
6118;DHT22;3089;48.202;11.510;2023-11-21T15:06:10;8.20;99.90
6118;DHT22;3089;48.202;11.510;2023-11-21T15:08:53;8.20;99.90
6118;DHT22;3089;48.202;11.510;2023-11-21T15:11:46;8.20;99.90
6118;DHT22;3089;48.202;11.510;2023-11-21T15:14:14;8.20;99.90
6118;DHT22;3089;48.202;11.510;2023-11-21T15:16:48;8.20;99.90
6118;DHT22;3089;48.202;11.510;2023-11-21T15:19:21;8.20;99.90
6118;DHT22;3089;48.202;11.510;2023-11-21T15:21:53;8.20;99.90
6118;DHT22;3089;48.202;11.510;2023-11-21T15:24:20;8.20;99.90
6118;DHT22;3089;48.202;11.510;2023-11-21T15:26:48;7.70;99.90
6118;DHT22;3089;48.202;11.510;2023-11-21T15:29:17;7.80;99.90
6118;DHT22;3089;48.202;11.510;2023-11-21T15:31:47;7.90;99.90
6118;DHT22;3089;48.202;11.510;2023-11-21T15:34:15;7.90;99.90
6118;DHT22;3089;48.202;11.510;2023-11-21T15:36:45;8.00;99.90
6118;DHT22;3089;48.202;11.510;2023-11-21T15:39:15;8.00;99.90
6118;DHT22;3089;48.202;11.510;2023-11-21T15:41:43;8.10;99.90
6118;DHT22;3089;48.202;11.510;2023-11-21T15:44:10;8.10;99.90
6118;DHT22;3089;48.202;11.510;2023-11-21T15:46:38;8.10;99.90
6118;DHT22;3089;48.202;11.510;2023-11-21T15:49:10;8.10;99.90
6118;DHT22;3089;48.202;11.510;2023-11-21T15:51:42;8.10;99.90
6118;DHT22;3089;48.202;11.510;2023-11-21T15:54:13;8.00;99.90
6118;DHT22;3089;48.202;11.510;2023-11-21T15:56:41;8.00;99.90
6118;DHT22;3089;48.202;11.510;2023-11-21T15:59:09;8.00;99.90
6118;DHT22;3089;48.202;11.510;2023-11-21T16:01:37;8.00;99.90
6118;DHT22;3089;48.202;11.510;2023-11-21T16:04:10;8.00;99.90
6118;DHT22;3089;48.202;11.510;2023-11-21T16:06:40;7.90;99.90
6118;DHT22;3089;48.202;11.510;2023-11-21T16:09:08;7.90;99.90
6118;DHT22;3089;48.202;11.510;2023-11-21T16:11:48;7.90;99.90
6118;DHT22;3089;48.202;11.510;2023-11-21T16:14:19;7.80;99.90
6118;DHT22;3089;48.202;11.510;2023-11-21T16:16:52;7.80;99.90